Decoded Metar for KRCA (RAPID CITY in SD, USA) (IATA:RCA) | Meteo·Mobile Aviation Weather
aviador You're here:

KRCA Decoded Metar

RAPID CITY in SD, USA
Report Time2018-12-17 14:56:00
UTC Time2018-12-17 15:39:54
Flight Rules vfr VFR
Wind240° at 03 kt
W.Decomp.*RWY 31: 0.5 kt HW 3 kt LCW
W.Rank240° ranks 23
Current wind is below 240° avg. (5.7)
Visibility9999 m
Phenomena:N/A
Clouds:N/A
Expected CloudBase > 800 ft AGL from Temp-Dew spread
CeilingNone
Temp-3°C (ISA -12)
Dew Point-5°C (86% RH)
AAT-6.7°C
QNH1015 hPa
Density Alt1,877 ft
Elevation3,278 ft
Report Wrong Elevation
Raw Report
KRCA 171456Z AUTO 24003KT 10SM CLR M03/M05 A2996 RMK AO2
DZB1358E07 SLP184 P0000 60000 T10311051 56004 $=

Extra information for KRCA:More info

Metar Taf Metar & Taf Last 4 Metars F.Rules Stats Wind Profile Meteogram Temp Stats Airport Information Weather charts Add Link Nearby VenuesMetar ALERT Operation Metar Decoded Social comments

AIRNAV info for KRCA